Hovedside
METAR-TAF:

METAR-TAF

Lufthavner :

Mosjøen lufthavn. Kjærstad

Mosjøen, Norge

breddegrad: 65-48N, lengdegrad: 013-08E, høyde over havet: 70 m

Gjeldene værobservasjon

Denne rapporten ble laget for 44 minutter siden, klokken 04:20 UTC
Vind 7 kt fra Sør, skiftende mellom Sør-sørøst og Vest-sørvest
Temperatur 8°C
Luftfuktighet 81%
Trykk 991 hPa
Sikt 10 km eller mer
Spredte skyer i en høyde av 3000 ft
Spredte skyer i en høyde av 4300 ft
regnbyger i nærheten

METAR: ENMS 210420Z 18007KT 150V240 9999 VCSH SCT030 SCT043 08/05 Q0991 RMK WIND 412FT 20007KT 140V240

Tid: 07:04 (05:04 UTC)


TAF: fraværende

Værobservasjoner og værvarsel for over 4000 flyplasser (METAR- og TAF-rapporter).

Tilgjengelige stasjoner er representert av de røde og gule prikkene på kartet.

Hold musepekeren over prikken for å se navnet på stasjonen.

Klikk så for å se værobservasjoner og -varsler.

For å forandre kartet kan du klikke på den grønne knappen med svart kryss for å zoome inn, på den grønne knappen med strek for å zoome ut, eller på de grønne pilene for å se tilstøtende kart.


METAR-TAF: